CDT,Max TemperatureF,Mean TemperatureF,Min TemperatureF,Max Dew PointF,MeanDew PointF,Min DewpointF,Max Humidity, Mean Humidity, Min Humidity, Max Sea Level PressureIn, Mean Sea Level PressureIn, Min Sea Level PressureIn, Max VisibilityMiles, Mean VisibilityMiles, Min VisibilityMiles, Max Wind SpeedMPH, Mean Wind SpeedMPH, Max Gust SpeedMPH,PrecipitationIn, CloudCover, Events, WindDirDegrees
2013-8-1,86,73,60,72,65,61,100,77,45,30.11,30.05,29.96,10,8,0,7,1,,0.00,2,Fog-Rain-Thunderstorm,168
2013-8-2,80,72,64,73,70,63,100,91,70,29.99,29.92,29.87,10,10,2,14,4,24,0.00,5,Rain,32
2013-8-3,82,75,68,72,69,63,100,80,61,30.14,30.05,29.94,10,10,7,10,4,,0.00,5,,65
2013-8-4,73,70,68,70,63,57,94,77,64,30.17,30.11,30.04,10,10,4,9,4,,0.00,8,Rain,98
2013-8-5,82,76,69,75,72,70,100,89,70,30.06,29.93,29.82,10,10,5,9,2,,0.00,6,,132
2013-8-6,87,78,69,77,72,70,100,83,55,29.89,29.85,29.80,10,10,7,13,2,17,0.00,1,Rain-Thunderstorm,180
2013-8-7,86,78,69,75,72,66,100,85,51,29.97,29.89,29.79,10,9,2,10,2,17,0.00,2,Rain-Thunderstorm,315
2013-8-8,73,68,64,70,65,63,100,84,73,30.02,29.99,29.94,10,10,10,8,3,,0.00,2,,46
2013-8-9,77,72,66,70,67,63,100,87,61,30.12,30.05,30.00,10,10,3,6,1,,0.00,4,Rain,75
2013-8-10,82,71,60,68,62,55,100,75,42,30.21,30.15,30.10,10,8,1,9,2,,0.00,0,,106
2013-8-11,84,72,59,72,64,59,100,78,51,30.15,30.10,30.02,10,9,1,9,1,,0.00,1,,142
2013-8-12,82,75,68,72,69,66,100,87,58,30.05,30.01,29.97,10,8,3,9,3,,0.00,3,Rain-Thunderstorm,326
2013-8-13,78,70,62,68,62,54,100,78,42,30.14,30.09,30.04,10,9,0,8,1,,0.00,3,Fog,42
2013-8-14,77,67,57,59,56,54,100,68,44,30.22,30.16,30.11,10,10,10,8,3,,0.00,2,,124
2013-8-15,71,66,60,61,58,54,94,76,64,30.14,30.11,30.05,10,10,7,7,3,,0.00,4,Rain-Thunderstorm,114
2013-8-16,77,67,57,61,56,52,100,72,41,30.18,30.14,30.10,10,10,10,9,2,16,0.00,4,,98
2013-8-17,78,64,51,61,55,52,100,75,39,30.22,30.17,30.11,10,9,2,9,1,16,0.00,1,,119
2013-8-18,80,66,51,64,58,52,100,78,47,30.19,30.14,30.08,10,9,1,8,1,16,0.00,1,,129
2013-8-19,84,70,55,68,61,55,100,76,39,30.12,30.07,30.01,10,8,1,8,2,,0.00,0,,161
2013-8-20,87,76,64,68,65,61,100,73,40,30.07,30.03,29.99,10,10,7,10,2,,0.00,1,,169
2013-8-21,89,76,64,72,67,63,100,74,43,30.09,30.04,30.00,10,10,7,9,3,,0.00,0,,167
2013-8-22,89,78,66,72,69,64,100,79,43,30.11,30.06,30.02,10,9,4,8,1,,0.00,0,,163
2013-8-23,89,78,66,73,69,63,100,79,43,30.11,30.06,30.02,10,8,1,9,1,,0.00,0,,124
2013-8-24,89,78,68,73,70,66,100,75,46,30.15,30.11,30.06,10,10,4,12,3,17,0.00,1,,141
2013-8-25,91,80,68,72,69,66,100,72,46,30.22,30.16,30.11,10,10,7,12,3,,0.00,0,,148
2013-8-26,95,82,68,73,69,64,100,70,38,30.17,30.11,30.05,10,9,5,12,3,20,0.00,0,,194
2013-8-27,95,82,68,72,65,61,100,62,34,30.07,30.03,29.97,10,10,10,14,4,20,0.00,0,,204
2013-8-28,93,78,64,72,66,61,100,69,36,30.05,30.02,29.99,10,10,7,9,3,,0.00,0,,232
2013-8-29,95,82,68,73,70,68,100,73,44,30.05,30.00,29.94,10,10,10,12,2,18,0.00,0,,164
2013-8-30,100,84,69,73,68,59,100,64,25,29.97,29.90,29.82,10,10,10,12,2,,0.00,1,,221
2013-8-31,87,78,69,77,73,70,100,83,58,29.87,29.83,29.79,10,10,3,16,1,21,0.00,0,Rain-Thunderstorm,324